createdAt,value
2022-09-03T00:00:56.154Z,96899.19
2022-09-03T00:03:29.408Z,96890.91
2022-09-03T00:06:09.435Z,96896.25
2022-09-03T00:08:42.958Z,96898.16
2022-09-03T00:11:15.364Z,96895.53
2022-09-03T00:13:48.905Z,96895.91
2022-09-03T00:16:21.830Z,96884.06
2022-09-03T00:18:54.375Z,96877.56
2022-09-03T00:21:28.205Z,96877.56
2022-09-03T00:23:56.813Z,96884.19
2022-09-03T00:26:29.035Z,96889.63
2022-09-03T00:29:03.921Z,96890.66
2022-09-03T00:31:37.056Z,96886.59
2022-09-03T00:34:12.345Z,96884.34
2022-09-03T00:36:43.342Z,96882.75
2022-09-03T00:39:16.531Z,96876.81
2022-09-03T00:41:53.478Z,96881.53
2022-09-03T00:44:50.225Z,96876.75
2022-09-03T00:47:25.205Z,96880.84
2022-09-03T00:50:03.236Z,96875.22
2022-09-03T00:52:45.242Z,96874.72
2022-09-03T00:55:22.874Z,96886.16
2022-09-03T00:58:03.615Z,96890.00
2022-09-03T01:00:31.826Z,96892.94
2022-09-03T01:03:08.234Z,96886.72
2022-09-03T01:06:01.653Z,96889.28
2022-09-03T01:08:46.567Z,96892.56
2022-09-03T01:11:45.629Z,96894.78
2022-09-03T01:14:21.229Z,96900.72
2022-09-03T01:16:53.388Z,96911.44
2022-09-03T01:19:48.699Z,96904.78
2022-09-03T01:22:45.038Z,96893.69
2022-09-03T01:25:17.861Z,96901.38
2022-09-03T01:28:10.418Z,96905.66
2022-09-03T01:30:41.674Z,96898.56
2022-09-03T01:33:18.466Z,96900.63
2022-09-03T01:35:49.568Z,96901.97
2022-09-03T01:38:28.158Z,96888.47
2022-09-03T01:41:21.749Z,96890.41
2022-09-03T01:44:00.496Z,96886.84
2022-09-03T01:46:31.942Z,96885.81
2022-09-03T01:49:07.588Z,96889.66
2022-09-03T01:51:35.678Z,96889.47
2022-09-03T01:54:30.061Z,96879.19
2022-09-03T01:57:34.681Z,96877.63
2022-09-03T02:00:08.342Z,96888.16
2022-09-03T02:02:37.206Z,96892.44
2022-09-03T02:05:09.436Z,96890.41
2022-09-03T02:07:39.792Z,96886.22
2022-09-03T02:10:10.349Z,96891.63
2022-09-03T02:12:40.461Z,96889.97
2022-09-03T02:15:14.431Z,96888.03
2022-09-03T02:17:43.922Z,96884.94
2022-09-03T02:20:13.913Z,96884.03
2022-09-03T02:22:42.113Z,96881.69
2022-09-03T02:25:11.733Z,96875.38
2022-09-03T02:27:40.120Z,96876.09
2022-09-03T02:30:11.561Z,96877.22
2022-09-03T02:32:39.618Z,96879.31
2022-09-03T02:35:08.621Z,96882.53
2022-09-03T02:37:36.893Z,96884.16
2022-09-03T02:40:06.949Z,96882.53
2022-09-03T02:42:35.232Z,96878.88
2022-09-03T02:45:09.442Z,96865.78
2022-09-03T02:47:40.981Z,96876.63
2022-09-03T02:50:09.637Z,96876.63
2022-09-03T02:52:38.348Z,96874.19
2022-09-03T02:55:07.661Z,96880.13
2022-09-03T02:57:35.802Z,96872.47
2022-09-03T03:00:04.650Z,96881.66
2022-09-03T03:02:32.780Z,96881.66
2022-09-03T03:05:02.424Z,96885.06
2022-09-03T03:07:33.902Z,96890.34
2022-09-03T03:10:02.033Z,96885.53
2022-09-03T03:12:31.672Z,96880.34
2022-09-03T03:14:59.783Z,96883.19
2022-09-03T03:17:28.952Z,96878.16
2022-09-03T03:19:57.094Z,96879.78
2022-09-03T03:22:26.591Z,96874.03
2022-09-03T03:24:55.624Z,96862.94
2022-09-03T03:27:24.089Z,96879.44
2022-09-03T03:29:52.445Z,96884.34
2022-09-03T03:32:20.721Z,96891.59
2022-09-03T03:34:48.968Z,96891.66
2022-09-03T03:37:17.214Z,96895.13
2022-09-03T03:39:46.828Z,96889.00
2022-09-03T03:42:15.449Z,96884.44
2022-09-03T03:44:44.171Z,96881.38
2022-09-03T03:47:12.561Z,96883.38
2022-09-03T03:49:40.702Z,96886.34
2022-09-03T03:52:08.802Z,96887.09
2022-09-03T03:54:37.255Z,96879.09
2022-09-03T03:57:06.931Z,96880.44
2022-09-03T03:59:35.082Z,96881.72
2022-09-03T04:02:03.298Z,96877.53
2022-09-03T04:04:31.452Z,96881.91
2022-09-03T04:06:59.631Z,96880.44
2022-09-03T04:09:27.792Z,96878.25
2022-09-03T04:11:58.013Z,96883.00
2022-09-03T04:14:28.135Z,96889.66
2022-09-03T04:16:56.700Z,96884.81
2022-09-03T04:19:25.440Z,96886.09
2022-09-03T04:21:54.741Z,96886.56
2022-09-03T04:24:22.920Z,96886.19
2022-09-03T04:26:51.891Z,96879.81
2022-09-03T04:29:21.532Z,96886.19
2022-09-03T04:32:08.731Z,96892.13
2022-09-03T04:34:36.854Z,96887.81
2022-09-03T04:37:05.008Z,96886.59
2022-09-03T04:39:33.113Z,96888.72
2022-09-03T04:42:01.222Z,96894.34
2022-09-03T04:44:29.363Z,96888.31
2022-09-03T04:46:58.842Z,96887.66
2022-09-03T04:49:26.962Z,96893.75
2022-09-03T04:51:55.050Z,96891.19
2022-09-03T04:54:23.160Z,96884.94
2022-09-03T04:56:56.222Z,96899.81
2022-09-03T04:59:24.375Z,96896.53
2022-09-03T05:01:53.207Z,96895.47
2022-09-03T05:04:22.762Z,96895.34
2022-09-03T05:06:50.864Z,96899.81
2022-09-03T05:09:19.012Z,96897.97
2022-09-03T05:11:47.111Z,96897.91
2022-09-03T05:14:15.354Z,96890.53
2022-09-03T05:16:43.659Z,96897.81
2022-09-03T05:19:22.732Z,96903.78
2022-09-03T05:21:50.802Z,96912.69
2022-09-03T05:24:18.979Z,96912.03
2022-09-03T05:26:47.219Z,96904.63
2022-09-03T05:29:16.251Z,96908.91
2022-09-03T05:31:44.308Z,96911.25
2022-09-03T05:34:16.262Z,96908.66
2022-09-03T05:36:50.251Z,96911.31
2022-09-03T05:39:19.109Z,96910.91
2022-09-03T05:41:47.290Z,96907.03
2022-09-03T05:44:15.412Z,96907.81
2022-09-03T05:46:43.487Z,96908.19
2022-09-03T05:49:11.880Z,96912.09
2022-09-03T05:51:40.687Z,96909.34
2022-09-03T05:54:10.693Z,96906.75
2022-09-03T05:56:41.411Z,96901.66
2022-09-03T05:59:11.098Z,96909.03
2022-09-03T06:01:40.723Z,96900.47
2022-09-03T06:04:10.612Z,96900.81
2022-09-03T06:06:40.080Z,96899.78
2022-09-03T06:09:11.627Z,96898.78
2022-09-03T06:11:40.592Z,96902.50
2022-09-03T06:14:11.261Z,96908.69
2022-09-03T06:16:41.079Z,96900.59
2022-09-03T06:19:11.062Z,96900.03
2022-09-03T06:21:43.191Z,96901.50
2022-09-03T06:24:13.882Z,96902.97
2022-09-03T06:26:43.335Z,96913.03
2022-09-03T06:29:12.643Z,96916.13
2022-09-03T06:31:41.133Z,96918.41
2022-09-03T06:34:09.494Z,96911.44
2022-09-03T06:36:37.654Z,96908.97
2022-09-03T06:39:05.823Z,96901.59
2022-09-03T06:41:35.995Z,96912.28
2022-09-03T06:44:06.617Z,96912.44
2022-09-03T06:46:36.331Z,96916.72
2022-09-03T06:49:04.573Z,96915.03
2022-09-03T06:51:34.088Z,96921.91
2022-09-03T06:54:03.110Z,96918.72
2022-09-03T06:56:38.808Z,96923.84
2022-09-03T06:59:10.777Z,96927.66
2022-09-03T07:01:44.035Z,96933.56
2022-09-03T07:04:13.416Z,96929.53
2022-09-03T07:06:43.338Z,96931.66
2022-09-03T07:09:13.104Z,96929.84
2022-09-03T07:11:47.777Z,96929.09
2022-09-03T07:14:18.929Z,96940.19
2022-09-03T07:16:47.954Z,96935.28
2022-09-03T07:19:16.483Z,96933.66
2022-09-03T07:21:49.954Z,96924.56
2022-09-03T07:24:19.654Z,96924.91
2022-09-03T07:26:49.035Z,96922.59
2022-09-03T07:29:20.860Z,96913.75
2022-09-03T07:31:52.178Z,96926.75
2022-09-03T07:34:22.237Z,96926.16
2022-09-03T07:36:51.840Z,96917.28
2022-09-03T07:39:20.459Z,96918.72
2022-09-03T07:41:48.977Z,96922.31
2022-09-03T07:44:20.666Z,96921.91
2022-09-03T07:46:51.601Z,96923.81
2022-09-03T07:49:21.275Z,96932.28
2022-09-03T07:51:50.951Z,96927.38
2022-09-03T07:54:20.483Z,96932.75
2022-09-03T07:56:48.675Z,96928.84
2022-09-03T07:59:18.313Z,96927.75
2022-09-03T08:01:46.463Z,96933.66
2022-09-03T08:04:14.567Z,96932.06
2022-09-03T08:06:42.701Z,96935.16
2022-09-03T08:09:13.937Z,96941.47
2022-09-03T08:11:43.888Z,96948.69
2022-09-03T08:14:13.396Z,96948.56
2022-09-03T08:16:44.891Z,96954.47
2022-09-03T08:19:13.470Z,96941.78
2022-09-03T08:21:42.869Z,96941.50
2022-09-03T08:24:11.807Z,96944.44
2022-09-03T08:26:42.903Z,96946.97
2022-09-03T08:29:12.304Z,96943.91
2022-09-03T08:31:40.558Z,96941.59
2022-09-03T08:34:11.954Z,96943.66
2022-09-03T08:36:41.536Z,96939.19
2022-09-03T08:39:11.209Z,96940.09
2022-09-03T08:42:16.081Z,96935.72
2022-09-03T08:44:47.288Z,96933.41
2022-09-03T08:47:19.998Z,96932.06
2022-09-03T08:49:52.894Z,96935.44
2022-09-03T08:52:26.798Z,96933.75
2022-09-03T08:55:01.865Z,96924.88
2022-09-03T08:57:34.534Z,96924.41
2022-09-03T09:00:02.684Z,96925.47
2022-09-03T09:02:43.401Z,96922.28
2022-09-03T09:05:14.647Z,96925.94
2022-09-03T09:07:47.635Z,96930.09
2022-09-03T09:10:22.913Z,96919.25
2022-09-03T09:13:03.306Z,96920.03
2022-09-03T09:15:37.007Z,96921.41
2022-09-03T09:18:14.999Z,96918.75
2022-09-03T09:20:50.620Z,96922.03
2022-09-03T09:23:24.183Z,96914.22
2022-09-03T09:25:55.802Z,96914.63
2022-09-03T09:28:25.701Z,96915.03
2022-09-03T09:30:57.256Z,96911.03
2022-09-03T09:33:25.635Z,96910.13
2022-09-03T09:35:55.166Z,96906.22
2022-09-03T09:38:30.692Z,96895.53
2022-09-03T09:41:10.101Z,96896.00
2022-09-03T09:43:38.454Z,96892.16
2022-09-03T09:46:13.785Z,96888.56
2022-09-03T09:48:48.935Z,96885.44
2022-09-03T09:51:22.922Z,96888.31
2022-09-03T09:54:02.506Z,96884.38
2022-09-03T09:56:30.777Z,96887.44
2022-09-03T09:59:09.134Z,96877.56
2022-09-03T10:01:39.757Z,96869.97
2022-09-03T10:04:12.766Z,96874.56
2022-09-03T10:06:58.213Z,96869.06
2022-09-03T10:09:31.134Z,96865.81
2022-09-03T10:12:09.684Z,96863.53
2022-09-03T10:14:43.785Z,96853.53
2022-09-03T10:17:16.235Z,96855.16
2022-09-03T10:20:13.605Z,96854.16
2022-09-03T10:22:48.347Z,96853.63
2022-09-03T10:25:28.695Z,96855.31
2022-09-03T10:28:02.245Z,96852.06
2022-09-03T10:30:31.505Z,96859.63
2022-09-03T10:33:09.962Z,96852.34
2022-09-03T10:35:43.495Z,96850.16
2022-09-03T10:38:19.498Z,96852.75
2022-09-03T10:40:54.204Z,96862.63
2022-09-03T10:43:38.405Z,96842.59
2022-09-03T10:46:12.526Z,96850.56
2022-09-03T10:49:00.126Z,96843.53
2022-09-03T10:51:34.223Z,96850.38
2022-09-03T10:54:15.476Z,96859.41
2022-09-03T10:56:51.286Z,96846.72
2022-09-03T10:59:33.005Z,96851.09
2022-09-03T11:02:17.073Z,96845.00
2022-09-03T11:04:50.847Z,96839.56
2022-09-03T11:07:22.046Z,96842.81
2022-09-03T11:09:55.225Z,96843.03
2022-09-03T11:12:26.776Z,96844.69
2022-09-03T11:14:58.688Z,96844.91
2022-09-03T11:17:32.172Z,96831.06
2022-09-03T11:20:12.863Z,96841.44
2022-09-03T11:22:41.428Z,96835.47
2022-09-03T11:25:12.804Z,96836.28
2022-09-03T11:27:56.572Z,96838.44
2022-09-03T11:30:26.643Z,96841.38
2022-09-03T11:32:57.245Z,96839.31
2022-09-03T11:35:31.501Z,96834.69
2022-09-03T11:38:01.806Z,96835.00
2022-09-03T11:40:41.766Z,96840.81
2022-09-03T11:43:14.766Z,96837.47
2022-09-03T11:45:44.290Z,96845.97
2022-09-03T11:48:20.734Z,96836.88
2022-09-03T11:50:56.036Z,96840.59
2022-09-03T11:53:28.416Z,96838.47
2022-09-03T11:56:02.129Z,96841.97
2022-09-03T11:58:33.024Z,96834.44
2022-09-03T12:01:02.877Z,96837.22
2022-09-03T12:03:39.645Z,96839.84
2022-09-03T12:06:33.506Z,96840.03
2022-09-03T12:09:15.045Z,96846.88
2022-09-03T12:11:53.133Z,96839.09
2022-09-03T12:14:24.985Z,96839.81
2022-09-03T12:17:02.147Z,96837.66
2022-09-03T12:19:37.185Z,96835.22
2022-09-03T12:22:05.955Z,96838.81
2022-09-03T12:24:37.829Z,96831.84
2022-09-03T12:27:10.116Z,96832.56
2022-09-03T12:29:40.875Z,96828.81
2022-09-03T12:32:10.858Z,96829.31
2022-09-03T12:34:39.149Z,96819.22
2022-09-03T12:38:03.917Z,96820.50
2022-09-03T12:40:18.963Z,96817.84
2022-09-03T12:42:48.655Z,96818.22
2022-09-03T12:45:21.595Z,96826.63
2022-09-03T12:47:49.719Z,96822.34
2022-09-03T12:50:20.333Z,96809.72
2022-09-03T12:52:50.478Z,96814.25
2022-09-03T12:55:27.869Z,96809.13
2022-09-03T12:58:02.864Z,96806.44
2022-09-03T13:00:32.206Z,96799.44
2022-09-03T13:03:03.886Z,96799.16
2022-09-03T13:05:34.447Z,96801.31
2022-09-03T13:08:04.296Z,96804.31
2022-09-03T13:10:34.267Z,96805.13
2022-09-03T13:13:05.479Z,96804.28
2022-09-03T13:15:34.202Z,96795.38
2022-09-03T13:18:15.026Z,96790.53
2022-09-03T13:20:52.179Z,96789.16
2022-09-03T13:23:33.348Z,96785.94
2022-09-03T13:26:10.766Z,96792.16
2022-09-03T13:28:51.116Z,96789.44
2022-09-03T13:31:28.425Z,96788.91
2022-09-03T13:34:01.290Z,96794.59
2022-09-03T13:36:32.658Z,96794.56
2022-09-03T13:39:06.355Z,96795.63
2022-09-03T13:41:39.530Z,96791.88
2022-09-03T13:44:13.115Z,96793.19
2022-09-03T13:46:45.599Z,96810.47
2022-09-03T13:49:48.806Z,96811.66
2022-09-03T13:52:24.087Z,96821.16
2022-09-03T13:54:55.896Z,96823.53
2022-09-03T13:57:30.836Z,96831.38
2022-09-03T14:00:06.199Z,96832.19
2022-09-03T14:02:46.080Z,96834.34
2022-09-03T14:05:19.257Z,96821.06
2022-09-03T14:07:55.768Z,96835.41
2022-09-03T14:10:26.554Z,96841.75
2022-09-03T14:13:06.337Z,96840.63
2022-09-03T14:15:41.214Z,96849.41
2022-09-03T14:18:19.316Z,96848.50
2022-09-03T14:20:50.856Z,96847.91
2022-09-03T14:23:27.867Z,96849.22
2022-09-03T14:25:56.888Z,96844.84
2022-09-03T14:28:31.397Z,96844.84
2022-09-03T14:31:07.658Z,96838.84
2022-09-03T14:33:40.827Z,96838.09
2022-09-03T14:36:15.578Z,96825.09
2022-09-03T14:38:59.925Z,96838.41
2022-09-03T14:41:39.608Z,96849.47
2022-09-03T14:44:24.329Z,96853.22
2022-09-03T14:47:04.845Z,96860.59
2022-09-03T14:49:59.619Z,96863.78
2022-09-03T14:52:58.630Z,96856.81
2022-09-03T14:55:40.356Z,96850.28
2022-09-03T14:58:20.558Z,96856.59
2022-09-03T15:00:54.857Z,96853.75
2022-09-03T15:03:46.789Z,96848.47
2022-09-03T15:06:31.112Z,96838.97
2022-09-03T15:09:19.608Z,96836.22
2022-09-03T15:11:52.058Z,96834.44
2022-09-03T15:14:26.366Z,96834.72
2022-09-03T15:17:00.799Z,96833.59
2022-09-03T15:19:52.528Z,96839.72
2022-09-03T15:22:33.490Z,96839.16
2022-09-03T15:25:11.149Z,96837.84
2022-09-03T15:28:01.228Z,96827.94
2022-09-03T15:30:36.734Z,96827.59
2022-09-03T15:33:13.819Z,96818.75
2022-09-03T15:35:58.386Z,96812.47
2022-09-03T15:38:41.501Z,96802.00
2022-09-03T15:41:12.820Z,96803.22
2022-09-03T15:43:41.819Z,96794.78
2022-09-03T15:46:13.855Z,96793.53
2022-09-03T15:48:50.802Z,96790.66
2022-09-03T15:51:24.868Z,96794.63
2022-09-03T15:53:57.268Z,96800.06
2022-09-03T15:56:29.331Z,96796.69
2022-09-03T15:59:03.590Z,96799.59
2022-09-03T16:01:38.632Z,96803.50
2022-09-03T16:04:13.839Z,96801.16
2022-09-03T16:06:52.058Z,96802.66
2022-09-03T16:09:26.807Z,96801.31
2022-09-03T16:12:00.590Z,96815.88
2022-09-03T16:14:32.570Z,96816.38
2022-09-03T16:17:06.140Z,96815.09
2022-09-03T16:19:41.957Z,96810.09
2022-09-03T16:22:16.037Z,96814.78
2022-09-03T16:24:48.757Z,96826.69
2022-09-03T16:27:19.209Z,96821.41
2022-09-03T16:29:58.696Z,96823.94
2022-09-03T16:32:35.611Z,96827.84
2022-09-03T16:35:13.881Z,96836.88
2022-09-03T16:37:58.619Z,96833.38
2022-09-03T16:40:33.170Z,96837.59
2022-09-03T16:43:29.833Z,96838.81
2022-09-03T16:46:05.888Z,96834.75
2022-09-03T16:48:38.797Z,96824.56
2022-09-03T16:51:14.470Z,96826.91
2022-09-03T16:54:03.259Z,96823.06
2022-09-03T16:56:51.270Z,96830.53
2022-09-03T16:59:41.449Z,96825.09
2022-09-03T17:02:40.771Z,96830.94
2022-09-03T17:05:26.449Z,96837.25
2022-09-03T17:08:09.861Z,96837.13
2022-09-03T17:10:45.280Z,96833.38
2022-09-03T17:13:31.278Z,96832.38
2022-09-03T17:16:04.941Z,96832.25
2022-09-03T17:18:42.908Z,96829.16
2022-09-03T17:21:19.697Z,96829.97
2022-09-03T17:24:05.573Z,96825.56
2022-09-03T17:26:38.711Z,96828.16
2022-09-03T17:29:18.171Z,96830.25
2022-09-03T17:31:51.653Z,96829.56
2022-09-03T17:34:35.321Z,96829.88
2022-09-03T17:37:20.721Z,96828.38
2022-09-03T17:40:09.282Z,96839.25
2022-09-03T17:42:50.176Z,96836.66
2022-09-03T17:45:23.611Z,96836.22
2022-09-03T17:48:14.030Z,96842.16
2022-09-03T17:50:51.219Z,96846.34
2022-09-03T17:53:25.111Z,96843.09
2022-09-03T17:55:57.481Z,96853.34
2022-09-03T17:58:31.627Z,96857.69
2022-09-03T18:01:05.289Z,96851.38
2022-09-03T18:03:41.142Z,96868.56
2022-09-03T18:06:11.900Z,96868.81
2022-09-03T18:08:46.270Z,96884.75
2022-09-03T18:11:19.759Z,96886.13
2022-09-03T18:13:52.649Z,96895.44
2022-09-03T18:16:26.524Z,96892.88
2022-09-03T18:19:00.083Z,96896.00
2022-09-03T18:21:48.370Z,96895.63
2022-09-03T18:24:50.673Z,96904.69
2022-09-03T18:27:39.440Z,96905.16
2022-09-03T18:30:28.971Z,96918.78
2022-09-03T18:33:15.007Z,96915.97
2022-09-03T18:36:02.260Z,96923.19
2022-09-03T18:38:50.395Z,96915.41
2022-09-03T18:41:57.928Z,96929.31
2022-09-03T18:45:18.300Z,96938.47
2022-09-03T18:48:18.063Z,96939.59
2022-09-03T18:51:10.324Z,96936.09
2022-09-03T18:54:02.900Z,96934.22
2022-09-03T18:56:54.599Z,96937.22
2022-09-03T18:59:55.865Z,96943.47
2022-09-03T19:02:47.257Z,96942.50
2022-09-03T19:05:38.885Z,96950.09
2022-09-03T19:08:29.736Z,96946.81
2022-09-03T19:11:21.397Z,96949.34
2022-09-03T19:14:06.905Z,96955.16
2022-09-03T19:17:01.475Z,96959.09
2022-09-03T19:20:14.225Z,96957.47
2022-09-03T19:23:01.323Z,96971.63
2022-09-03T19:25:48.354Z,96964.47
2022-09-03T19:28:35.975Z,96969.31
2022-09-03T19:31:50.474Z,96974.09
2022-09-03T19:34:54.265Z,96971.88
2022-09-03T19:37:43.955Z,96972.56
2022-09-03T19:40:40.925Z,96990.81
2022-09-03T19:43:37.181Z,96980.13
2022-09-03T19:46:30.432Z,96983.84
2022-09-03T19:49:22.327Z,96984.88
2022-09-03T19:52:14.506Z,96993.34
2022-09-03T19:55:00.144Z,97001.59
2022-09-03T19:57:48.383Z,97006.16
2022-09-03T20:00:33.974Z,97009.41
2022-09-03T20:03:20.527Z,97018.47
2022-09-03T20:06:10.826Z,97019.88
2022-09-03T20:08:56.773Z,97011.66
2022-09-03T20:11:27.847Z,97016.22
2022-09-03T20:14:16.935Z,97017.31
2022-09-03T20:16:59.213Z,97010.84
2022-09-03T20:19:34.176Z,97022.63
2022-09-03T20:22:11.713Z,97019.69
2022-09-03T20:24:50.594Z,97024.38
2022-09-03T20:27:27.354Z,97028.88
2022-09-03T20:30:03.576Z,97026.06
2022-09-03T20:32:55.748Z,97034.25
2022-09-03T20:35:30.135Z,97037.16
2022-09-03T20:38:10.458Z,97046.41
2022-09-03T20:40:45.025Z,97042.50
2022-09-03T20:43:25.864Z,97039.84
2022-09-03T20:46:01.853Z,97045.16
2022-09-03T20:48:36.916Z,97047.00
2022-09-03T20:51:11.983Z,97049.91
2022-09-03T20:54:02.276Z,97052.34
2022-09-03T20:56:35.147Z,97060.78
2022-09-03T20:59:12.585Z,97065.31
2022-09-03T21:01:50.707Z,97056.06
2022-09-03T21:04:26.856Z,97050.72
2022-09-03T21:06:57.463Z,97053.88
2022-09-03T21:09:34.424Z,97059.22
2022-09-03T21:12:07.538Z,97042.06
2022-09-03T21:14:40.538Z,97060.06
2022-09-03T21:17:21.653Z,97050.66
2022-09-03T21:19:58.405Z,97056.47
2022-09-03T21:22:32.854Z,97049.94
2022-09-03T21:25:04.623Z,97054.44
2022-09-03T21:27:35.465Z,97038.09
2022-09-03T21:30:06.178Z,97059.59
2022-09-03T21:32:40.135Z,97054.31
2022-09-03T21:35:14.927Z,97060.69
2022-09-03T21:37:49.327Z,97056.16
2022-09-03T21:40:24.535Z,97057.34
2022-09-03T21:42:59.964Z,97050.56
2022-09-03T21:45:32.566Z,97042.38
2022-09-03T21:48:08.025Z,97058.13
2022-09-03T21:50:46.605Z,97071.47
2022-09-03T21:53:19.235Z,97061.47
2022-09-03T21:55:59.405Z,97066.53
2022-09-03T21:58:35.615Z,97073.03
2022-09-03T22:01:08.629Z,97072.19
2022-09-03T22:03:38.096Z,97070.38
2022-09-03T22:06:10.195Z,97068.78
2022-09-03T22:08:45.456Z,97076.81
2022-09-03T22:11:19.537Z,97081.16
2022-09-03T22:13:54.554Z,97085.91
2022-09-03T22:16:27.794Z,97071.00
2022-09-03T22:18:57.342Z,97077.75
2022-09-03T22:21:31.877Z,97080.66
2022-09-03T22:24:07.568Z,97081.94
2022-09-03T22:26:45.822Z,97084.44
2022-09-03T22:29:24.152Z,97086.31
2022-09-03T22:31:58.853Z,97078.72
2022-09-03T22:34:49.374Z,97082.84
2022-09-03T22:37:25.874Z,97078.75
2022-09-03T22:39:57.417Z,97073.66
2022-09-03T22:42:44.112Z,97073.66
2022-09-03T22:45:22.863Z,97072.22
2022-09-03T22:48:00.554Z,97074.50
2022-09-03T22:50:33.045Z,97075.94
2022-09-03T22:53:12.351Z,97080.25
2022-09-03T22:55:43.044Z,97096.03
2022-09-03T22:58:15.816Z,97088.66
2022-09-03T23:00:48.659Z,97091.34
2022-09-03T23:03:21.512Z,97094.59
2022-09-03T23:05:53.793Z,97095.81
2022-09-03T23:08:25.722Z,97092.56
2022-09-03T23:11:03.309Z,97094.41
2022-09-03T23:13:35.664Z,97093.59
2022-09-03T23:16:13.166Z,97090.94
2022-09-03T23:18:44.646Z,97089.50
2022-09-03T23:21:23.786Z,97085.19
2022-09-03T23:23:58.576Z,97090.13
2022-09-03T23:26:33.224Z,97095.41
2022-09-03T23:29:10.163Z,97099.91
2022-09-03T23:31:38.585Z,97099.69
2022-09-03T23:34:08.874Z,97087.41
2022-09-03T23:37:32.501Z,97098.03
2022-09-03T23:40:17.872Z,97089.00
2022-09-03T23:43:00.840Z,97098.25
2022-09-03T23:45:36.359Z,97100.28
2022-09-03T23:48:10.892Z,97104.34
2022-09-03T23:50:44.913Z,97108.28
2022-09-03T23:53:33.390Z,97104.97
2022-09-03T23:56:18.661Z,97103.13
2022-09-03T23:58:56.991Z,97107.19
